sensor_id;sensor_type;location;lat;lon;timestamp;P1;durP1;ratioP1;P2;durP2;ratioP2
32790;SDS011;19143;59.322;14.502;2024-03-02T00:00:39;19.33;;;9.37;;
32790;SDS011;19143;59.322;14.502;2024-03-02T00:03:05;21.97;;;10.07;;
32790;SDS011;19143;59.322;14.502;2024-03-02T00:05:34;25.43;;;10.17;;
32790;SDS011;19143;59.322;14.502;2024-03-02T00:08:02;20.87;;;10.40;;
32790;SDS011;19143;59.322;14.502;2024-03-02T00:10:32;17.87;;;9.73;;
32790;SDS011;19143;59.322;14.502;2024-03-02T00:13:02;19.70;;;10.20;;
32790;SDS011;19143;59.322;14.502;2024-03-02T00:15:41;18.67;;;9.77;;
32790;SDS011;19143;59.322;14.502;2024-03-02T00:18:10;19.87;;;10.20;;
32790;SDS011;19143;59.322;14.502;2024-03-02T00:20:36;22.23;;;11.47;;
32790;SDS011;19143;59.322;14.502;2024-03-02T00:23:05;23.13;;;10.57;;
32790;SDS011;19143;59.322;14.502;2024-03-02T00:25:36;20.50;;;10.83;;
32790;SDS011;19143;59.322;14.502;2024-03-02T00:28:04;20.53;;;11.10;;
32790;SDS011;19143;59.322;14.502;2024-03-02T00:30:51;18.20;;;10.43;;
32790;SDS011;19143;59.322;14.502;2024-03-02T00:33:19;19.73;;;10.10;;
32790;SDS011;19143;59.322;14.502;2024-03-02T00:35:46;21.20;;;10.77;;
32790;SDS011;19143;59.322;14.502;2024-03-02T00:38:14;25.37;;;11.10;;
32790;SDS011;19143;59.322;14.502;2024-03-02T00:40:40;24.73;;;10.87;;
32790;SDS011;19143;59.322;14.502;2024-03-02T00:43:08;27.10;;;11.63;;
32790;SDS011;19143;59.322;14.502;2024-03-02T00:45:36;22.03;;;11.20;;
32790;SDS011;19143;59.322;14.502;2024-03-02T00:48:06;22.93;;;10.70;;
32790;SDS011;19143;59.322;14.502;2024-03-02T00:50:34;24.90;;;12.10;;
32790;SDS011;19143;59.322;14.502;2024-03-02T00:53:01;23.80;;;11.27;;
32790;SDS011;19143;59.322;14.502;2024-03-02T00:55:29;19.33;;;9.87;;
32790;SDS011;19143;59.322;14.502;2024-03-02T00:57:56;21.60;;;10.83;;
32790;SDS011;19143;59.322;14.502;2024-03-02T01:00:22;23.00;;;10.70;;
32790;SDS011;19143;59.322;14.502;2024-03-02T01:02:49;17.83;;;10.33;;
32790;SDS011;19143;59.322;14.502;2024-03-02T01:05:15;18.33;;;10.40;;
32790;SDS011;19143;59.322;14.502;2024-03-02T01:07:42;16.97;;;9.53;;
32790;SDS011;19143;59.322;14.502;2024-03-02T01:10:09;19.97;;;9.13;;
32790;SDS011;19143;59.322;14.502;2024-03-02T01:12:37;20.97;;;10.77;;
32790;SDS011;19143;59.322;14.502;2024-03-02T01:15:04;18.40;;;10.33;;
32790;SDS011;19143;59.322;14.502;2024-03-02T01:17:33;22.17;;;10.33;;
32790;SDS011;19143;59.322;14.502;2024-03-02T01:19:59;20.70;;;9.80;;
32790;SDS011;19143;59.322;14.502;2024-03-02T01:22:26;19.33;;;9.50;;
32790;SDS011;19143;59.322;14.502;2024-03-02T01:24:52;19.90;;;10.07;;
32790;SDS011;19143;59.322;14.502;2024-03-02T01:27:19;17.30;;;9.80;;
32790;SDS011;19143;59.322;14.502;2024-03-02T01:29:47;19.07;;;10.03;;
32790;SDS011;19143;59.322;14.502;2024-03-02T01:32:14;16.70;;;9.87;;
32790;SDS011;19143;59.322;14.502;2024-03-02T01:34:41;20.90;;;9.53;;
32790;SDS011;19143;59.322;14.502;2024-03-02T01:37:07;17.73;;;9.67;;
32790;SDS011;19143;59.322;14.502;2024-03-02T01:39:35;17.20;;;10.47;;
32790;SDS011;19143;59.322;14.502;2024-03-02T01:42:01;19.63;;;10.03;;
32790;SDS011;19143;59.322;14.502;2024-03-02T01:44:28;17.37;;;9.73;;
32790;SDS011;19143;59.322;14.502;2024-03-02T01:46:56;16.63;;;9.77;;
32790;SDS011;19143;59.322;14.502;2024-03-02T01:49:22;16.90;;;9.93;;
32790;SDS011;19143;59.322;14.502;2024-03-02T01:51:49;17.10;;;9.73;;
32790;SDS011;19143;59.322;14.502;2024-03-02T01:54:15;18.70;;;10.00;;
32790;SDS011;19143;59.322;14.502;2024-03-02T01:56:42;18.87;;;9.70;;
32790;SDS011;19143;59.322;14.502;2024-03-02T01:59:08;20.17;;;9.67;;
32790;SDS011;19143;59.322;14.502;2024-03-02T02:01:34;21.53;;;9.97;;
32790;SDS011;19143;59.322;14.502;2024-03-02T02:04:02;18.27;;;9.33;;
32790;SDS011;19143;59.322;14.502;2024-03-02T02:06:31;19.33;;;9.60;;
32790;SDS011;19143;59.322;14.502;2024-03-02T02:08:58;18.83;;;9.57;;
32790;SDS011;19143;59.322;14.502;2024-03-02T02:11:24;18.10;;;9.43;;
32790;SDS011;19143;59.322;14.502;2024-03-02T02:13:51;18.70;;;10.13;;
32790;SDS011;19143;59.322;14.502;2024-03-02T02:16:20;18.57;;;10.27;;
32790;SDS011;19143;59.322;14.502;2024-03-02T02:18:47;19.53;;;10.57;;
32790;SDS011;19143;59.322;14.502;2024-03-02T02:21:15;20.40;;;9.63;;
32790;SDS011;19143;59.322;14.502;2024-03-02T02:23:42;23.27;;;10.10;;
32790;SDS011;19143;59.322;14.502;2024-03-02T02:26:13;16.40;;;9.13;;
32790;SDS011;19143;59.322;14.502;2024-03-02T02:28:39;17.63;;;8.60;;
32790;SDS011;19143;59.322;14.502;2024-03-02T02:31:11;15.47;;;9.17;;
32790;SDS011;19143;59.322;14.502;2024-03-02T02:33:38;20.07;;;9.53;;
32790;SDS011;19143;59.322;14.502;2024-03-02T02:36:05;18.50;;;9.77;;
32790;SDS011;19143;59.322;14.502;2024-03-02T02:38:32;16.40;;;9.70;;
32790;SDS011;19143;59.322;14.502;2024-03-02T02:41:00;16.20;;;9.37;;
32790;SDS011;19143;59.322;14.502;2024-03-02T02:43:27;15.53;;;9.57;;
32790;SDS011;19143;59.322;14.502;2024-03-02T02:45:53;18.57;;;9.27;;
32790;SDS011;19143;59.322;14.502;2024-03-02T02:48:20;14.40;;;8.83;;
32790;SDS011;19143;59.322;14.502;2024-03-02T02:50:46;17.17;;;9.70;;
32790;SDS011;19143;59.322;14.502;2024-03-02T02:53:13;14.73;;;9.37;;
32790;SDS011;19143;59.322;14.502;2024-03-02T02:55:39;13.93;;;8.57;;
32790;SDS011;19143;59.322;14.502;2024-03-02T02:58:09;14.83;;;8.57;;
32790;SDS011;19143;59.322;14.502;2024-03-02T03:00:36;16.57;;;8.13;;
32790;SDS011;19143;59.322;14.502;2024-03-02T03:03:02;12.87;;;7.80;;
32790;SDS011;19143;59.322;14.502;2024-03-02T03:05:29;14.77;;;7.87;;
32790;SDS011;19143;59.322;14.502;2024-03-02T03:07:55;12.30;;;8.37;;
32790;SDS011;19143;59.322;14.502;2024-03-02T03:10:22;18.40;;;8.97;;
32790;SDS011;19143;59.322;14.502;2024-03-02T03:12:51;15.73;;;8.30;;
32790;SDS011;19143;59.322;14.502;2024-03-02T03:15:19;16.90;;;9.40;;
32790;SDS011;19143;59.322;14.502;2024-03-02T03:17:45;13.93;;;8.43;;
32790;SDS011;19143;59.322;14.502;2024-03-02T03:20:12;14.03;;;8.93;;
32790;SDS011;19143;59.322;14.502;2024-03-02T03:22:40;15.87;;;8.87;;
32790;SDS011;19143;59.322;14.502;2024-03-02T03:25:07;15.87;;;9.07;;
32790;SDS011;19143;59.322;14.502;2024-03-02T03:27:33;16.03;;;8.87;;
32790;SDS011;19143;59.322;14.502;2024-03-02T03:30:00;17.30;;;9.57;;
32790;SDS011;19143;59.322;14.502;2024-03-02T03:32:27;11.33;;;7.83;;
32790;SDS011;19143;59.322;14.502;2024-03-02T03:34:54;11.87;;;8.23;;
32790;SDS011;19143;59.322;14.502;2024-03-02T03:37:20;12.63;;;7.97;;
32790;SDS011;19143;59.322;14.502;2024-03-02T03:39:47;16.40;;;8.80;;
32790;SDS011;19143;59.322;14.502;2024-03-02T03:42:13;16.17;;;8.93;;
32790;SDS011;19143;59.322;14.502;2024-03-02T03:44:40;12.77;;;8.53;;
32790;SDS011;19143;59.322;14.502;2024-03-02T03:47:06;13.77;;;8.13;;
32790;SDS011;19143;59.322;14.502;2024-03-02T03:49:34;14.73;;;8.10;;
32790;SDS011;19143;59.322;14.502;2024-03-02T03:52:01;12.43;;;8.30;;
32790;SDS011;19143;59.322;14.502;2024-03-02T03:54:27;13.20;;;8.00;;
32790;SDS011;19143;59.322;14.502;2024-03-02T03:56:54;13.30;;;7.97;;
32790;SDS011;19143;59.322;14.502;2024-03-02T03:59:21;13.17;;;8.43;;
32790;SDS011;19143;59.322;14.502;2024-03-02T04:01:47;12.10;;;8.20;;
32790;SDS011;19143;59.322;14.502;2024-03-02T04:04:14;16.10;;;8.20;;
32790;SDS011;19143;59.322;14.502;2024-03-02T04:06:42;16.10;;;8.80;;
32790;SDS011;19143;59.322;14.502;2024-03-02T04:09:08;13.00;;;8.57;;
32790;SDS011;19143;59.322;14.502;2024-03-02T04:11:35;18.53;;;9.30;;
32790;SDS011;19143;59.322;14.502;2024-03-02T04:14:01;13.50;;;8.20;;
32790;SDS011;19143;59.322;14.502;2024-03-02T04:16:28;15.83;;;9.33;;
32790;SDS011;19143;59.322;14.502;2024-03-02T04:18:54;17.40;;;8.77;;
32790;SDS011;19143;59.322;14.502;2024-03-02T04:21:21;17.03;;;8.47;;
32790;SDS011;19143;59.322;14.502;2024-03-02T04:23:49;15.73;;;8.57;;
32790;SDS011;19143;59.322;14.502;2024-03-02T04:26:15;19.37;;;9.53;;
32790;SDS011;19143;59.322;14.502;2024-03-02T04:28:47;17.73;;;8.43;;
32790;SDS011;19143;59.322;14.502;2024-03-02T04:31:14;16.10;;;8.80;;
32790;SDS011;19143;59.322;14.502;2024-03-02T04:33:41;21.80;;;9.13;;
32790;SDS011;19143;59.322;14.502;2024-03-02T04:36:07;17.33;;;9.53;;
32790;SDS011;19143;59.322;14.502;2024-03-02T04:38:34;21.20;;;10.30;;
32790;SDS011;19143;59.322;14.502;2024-03-02T04:41:03;16.93;;;9.00;;
32790;SDS011;19143;59.322;14.502;2024-03-02T04:43:29;20.87;;;9.53;;
32790;SDS011;19143;59.322;14.502;2024-03-02T04:45:57;16.60;;;8.53;;
32790;SDS011;19143;59.322;14.502;2024-03-02T04:48:24;19.43;;;9.50;;
32790;SDS011;19143;59.322;14.502;2024-03-02T04:50:50;23.07;;;9.30;;
32790;SDS011;19143;59.322;14.502;2024-03-02T04:53:17;20.43;;;9.53;;
32790;SDS011;19143;59.322;14.502;2024-03-02T04:55:43;22.73;;;9.60;;
32790;SDS011;19143;59.322;14.502;2024-03-02T04:58:46;21.30;;;10.30;;
32790;SDS011;19143;59.322;14.502;2024-03-02T05:01:12;20.33;;;9.20;;
32790;SDS011;19143;59.322;14.502;2024-03-02T05:03:39;21.17;;;9.90;;
32790;SDS011;19143;59.322;14.502;2024-03-02T05:06:05;24.70;;;10.43;;
32790;SDS011;19143;59.322;14.502;2024-03-02T05:08:33;21.27;;;10.30;;
32790;SDS011;19143;59.322;14.502;2024-03-02T05:11:00;26.80;;;11.13;;
32790;SDS011;19143;59.322;14.502;2024-03-02T05:13:48;26.90;;;11.53;;
32790;SDS011;19143;59.322;14.502;2024-03-02T05:16:14;23.00;;;10.73;;
32790;SDS011;19143;59.322;14.502;2024-03-02T05:18:41;31.67;;;10.57;;
32790;SDS011;19143;59.322;14.502;2024-03-02T05:21:07;28.43;;;11.13;;
32790;SDS011;19143;59.322;14.502;2024-03-02T05:23:33;24.90;;;10.50;;
32790;SDS011;19143;59.322;14.502;2024-03-02T05:26:00;32.70;;;10.70;;
32790;SDS011;19143;59.322;14.502;2024-03-02T05:28:26;22.77;;;9.93;;
32790;SDS011;19143;59.322;14.502;2024-03-02T05:30:54;31.17;;;11.43;;
32790;SDS011;19143;59.322;14.502;2024-03-02T05:33:21;27.70;;;11.17;;
32790;SDS011;19143;59.322;14.502;2024-03-02T05:35:48;28.87;;;11.53;;
32790;SDS011;19143;59.322;14.502;2024-03-02T05:38:16;32.60;;;12.10;;
32790;SDS011;19143;59.322;14.502;2024-03-02T05:40:42;34.10;;;11.70;;
32790;SDS011;19143;59.322;14.502;2024-03-02T05:43:09;32.07;;;10.97;;
32790;SDS011;19143;59.322;14.502;2024-03-02T05:45:35;29.40;;;11.17;;
32790;SDS011;19143;59.322;14.502;2024-03-02T05:48:03;27.33;;;11.67;;
32790;SDS011;19143;59.322;14.502;2024-03-02T05:50:30;26.93;;;10.67;;
32790;SDS011;19143;59.322;14.502;2024-03-02T05:52:56;36.13;;;10.60;;
32790;SDS011;19143;59.322;14.502;2024-03-02T05:55:23;31.57;;;11.03;;
32790;SDS011;19143;59.322;14.502;2024-03-02T05:57:50;30.80;;;10.83;;
32790;SDS011;19143;59.322;14.502;2024-03-02T06:00:36;31.50;;;11.23;;
32790;SDS011;19143;59.322;14.502;2024-03-02T06:03:05;25.67;;;11.00;;
32790;SDS011;19143;59.322;14.502;2024-03-02T06:05:33;31.13;;;10.43;;
32790;SDS011;19143;59.322;14.502;2024-03-02T06:07:59;27.80;;;10.70;;
32790;SDS011;19143;59.322;14.502;2024-03-02T06:10:26;22.70;;;10.53;;
32790;SDS011;19143;59.322;14.502;2024-03-02T06:12:52;29.73;;;10.87;;
32790;SDS011;19143;59.322;14.502;2024-03-02T06:15:18;38.37;;;11.63;;
32790;SDS011;19143;59.322;14.502;2024-03-02T06:17:45;38.50;;;10.90;;
32790;SDS011;19143;59.322;14.502;2024-03-02T06:20:13;48.63;;;11.50;;
32790;SDS011;19143;59.322;14.502;2024-03-02T06:22:39;33.80;;;11.13;;
32790;SDS011;19143;59.322;14.502;2024-03-02T06:25:06;36.67;;;12.10;;
32790;SDS011;19143;59.322;14.502;2024-03-02T06:27:33;32.87;;;11.43;;
32790;SDS011;19143;59.322;14.502;2024-03-02T06:29:59;38.50;;;12.07;;
32790;SDS011;19143;59.322;14.502;2024-03-02T06:32:26;29.70;;;11.03;;
32790;SDS011;19143;59.322;14.502;2024-03-02T06:34:52;44.07;;;12.53;;
32790;SDS011;19143;59.322;14.502;2024-03-02T06:37:20;34.87;;;10.90;;
32790;SDS011;19143;59.322;14.502;2024-03-02T06:39:46;33.40;;;12.13;;
32790;SDS011;19143;59.322;14.502;2024-03-02T06:42:13;28.27;;;9.77;;
32790;SDS011;19143;59.322;14.502;2024-03-02T06:44:39;41.17;;;10.67;;
32790;SDS011;19143;59.322;14.502;2024-03-02T06:47:06;33.27;;;11.63;;
32790;SDS011;19143;59.322;14.502;2024-03-02T06:49:32;36.73;;;11.60;;
32790;SDS011;19143;59.322;14.502;2024-03-02T06:52:00;30.83;;;11.63;;
32790;SDS011;19143;59.322;14.502;2024-03-02T06:54:28;44.17;;;12.97;;
32790;SDS011;19143;59.322;14.502;2024-03-02T06:56:54;39.80;;;12.03;;
32790;SDS011;19143;59.322;14.502;2024-03-02T06:59:21;38.57;;;11.67;;
32790;SDS011;19143;59.322;14.502;2024-03-02T07:01:47;49.13;;;12.37;;
32790;SDS011;19143;59.322;14.502;2024-03-02T07:04:14;33.33;;;11.50;;
32790;SDS011;19143;59.322;14.502;2024-03-02T07:06:40;34.83;;;11.87;;
32790;SDS011;19143;59.322;14.502;2024-03-02T07:09:07;38.73;;;11.50;;
32790;SDS011;19143;59.322;14.502;2024-03-02T07:11:37;27.17;;;10.13;;
32790;SDS011;19143;59.322;14.502;2024-03-02T07:14:03;29.47;;;12.43;;
32790;SDS011;19143;59.322;14.502;2024-03-02T07:16:30;33.70;;;12.33;;
32790;SDS011;19143;59.322;14.502;2024-03-02T07:18:58;27.37;;;11.60;;
32790;SDS011;19143;59.322;14.502;2024-03-02T07:21:26;34.77;;;12.37;;
32790;SDS011;19143;59.322;14.502;2024-03-02T07:23:53;26.47;;;11.07;;
32790;SDS011;19143;59.322;14.502;2024-03-02T07:26:20;31.00;;;12.60;;
32790;SDS011;19143;59.322;14.502;2024-03-02T07:28:48;26.10;;;12.50;;
32790;SDS011;19143;59.322;14.502;2024-03-02T07:31:15;25.07;;;10.57;;
32790;SDS011;19143;59.322;14.502;2024-03-02T07:33:43;30.10;;;11.70;;
32790;SDS011;19143;59.322;14.502;2024-03-02T07:36:10;28.87;;;11.07;;
32790;SDS011;19143;59.322;14.502;2024-03-02T07:38:36;30.57;;;12.67;;
32790;SDS011;19143;59.322;14.502;2024-03-02T07:41:03;34.47;;;12.60;;
32790;SDS011;19143;59.322;14.502;2024-03-02T07:43:30;23.60;;;10.93;;
32790;SDS011;19143;59.322;14.502;2024-03-02T11:09:20;22.87;;;11.83;;
32790;SDS011;19143;59.322;14.502;2024-03-02T11:11:49;23.83;;;12.47;;
32790;SDS011;19143;59.322;14.502;2024-03-02T11:14:23;21.53;;;11.67;;
32790;SDS011;19143;59.322;14.502;2024-03-02T11:16:50;23.83;;;11.73;;
32790;SDS011;19143;59.322;14.502;2024-03-02T11:19:19;21.80;;;11.57;;
32790;SDS011;19143;59.322;14.502;2024-03-02T11:21:46;21.23;;;10.70;;
32790;SDS011;19143;59.322;14.502;2024-03-02T11:27:01;19.97;;;10.93;;
32790;SDS011;19143;59.322;14.502;2024-03-02T11:29:43;23.87;;;10.73;;
32790;SDS011;19143;59.322;14.502;2024-03-02T11:32:13;22.30;;;10.90;;
32790;SDS011;19143;59.322;14.502;2024-03-02T11:34:40;20.77;;;11.23;;
32790;SDS011;19143;59.322;14.502;2024-03-02T11:37:10;21.27;;;10.83;;
32790;SDS011;19143;59.322;14.502;2024-03-02T11:39:37;18.20;;;10.33;;
32790;SDS011;19143;59.322;14.502;2024-03-02T11:42:06;21.30;;;11.37;;
32790;SDS011;19143;59.322;14.502;2024-03-02T11:44:34;25.17;;;12.03;;
32790;SDS011;19143;59.322;14.502;2024-03-02T11:47:02;29.47;;;13.17;;
32790;SDS011;19143;59.322;14.502;2024-03-02T11:49:38;23.83;;;12.30;;
32790;SDS011;19143;59.322;14.502;2024-03-02T11:52:06;32.20;;;14.33;;
32790;SDS011;19143;59.322;14.502;2024-03-02T11:54:33;28.50;;;14.60;;
32790;SDS011;19143;59.322;14.502;2024-03-02T11:57:01;29.00;;;13.77;;
32790;SDS011;19143;59.322;14.502;2024-03-02T11:59:29;29.67;;;14.77;;
32790;SDS011;19143;59.322;14.502;2024-03-02T12:01:56;34.93;;;14.87;;
32790;SDS011;19143;59.322;14.502;2024-03-02T12:04:23;28.23;;;14.43;;
32790;SDS011;19143;59.322;14.502;2024-03-02T12:06:54;32.37;;;16.07;;
32790;SDS011;19143;59.322;14.502;2024-03-02T12:09:20;34.77;;;15.70;;
32790;SDS011;19143;59.322;14.502;2024-03-02T12:11:47;35.40;;;15.70;;
32790;SDS011;19143;59.322;14.502;2024-03-02T12:14:14;33.27;;;16.17;;
32790;SDS011;19143;59.322;14.502;2024-03-02T12:16:44;38.47;;;15.20;;
32790;SDS011;19143;59.322;14.502;2024-03-02T12:19:11;31.20;;;15.83;;
32790;SDS011;19143;59.322;14.502;2024-03-02T12:21:37;32.37;;;15.90;;
32790;SDS011;19143;59.322;14.502;2024-03-02T12:24:04;34.43;;;15.90;;
32790;SDS011;19143;59.322;14.502;2024-03-02T12:26:31;34.37;;;16.53;;
32790;SDS011;19143;59.322;14.502;2024-03-02T12:28:57;41.17;;;15.50;;
32790;SDS011;19143;59.322;14.502;2024-03-02T12:31:24;34.07;;;16.10;;
32790;SDS011;19143;59.322;14.502;2024-03-02T12:33:52;32.83;;;16.40;;
32790;SDS011;19143;59.322;14.502;2024-03-02T12:36:19;37.37;;;18.10;;
32790;SDS011;19143;59.322;14.502;2024-03-02T12:38:46;37.20;;;17.57;;
32790;SDS011;19143;59.322;14.502;2024-03-02T12:41:14;36.33;;;18.87;;
32790;SDS011;19143;59.322;14.502;2024-03-02T12:43:41;37.60;;;17.07;;
32790;SDS011;19143;59.322;14.502;2024-03-02T12:46:08;43.33;;;19.13;;
32790;SDS011;19143;59.322;14.502;2024-03-02T12:48:35;41.90;;;18.80;;
32790;SDS011;19143;59.322;14.502;2024-03-02T12:51:06;45.93;;;19.27;;
32790;SDS011;19143;59.322;14.502;2024-03-02T12:53:46;40.43;;;19.13;;
32790;SDS011;19143;59.322;14.502;2024-03-02T12:59:33;38.07;;;15.03;;
32790;SDS011;19143;59.322;14.502;2024-03-02T13:02:00;43.63;;;19.10;;
32790;SDS011;19143;59.322;14.502;2024-03-02T13:20:07;49.13;;;19.77;;
32790;SDS011;19143;59.322;14.502;2024-03-02T13:22:35;43.27;;;19.70;;
32790;SDS011;19143;59.322;14.502;2024-03-02T13:25:08;45.37;;;19.93;;
32790;SDS011;19143;59.322;14.502;2024-03-02T13:27:38;50.40;;;20.33;;
32790;SDS011;19143;59.322;14.502;2024-03-02T13:30:07;48.63;;;20.23;;
32790;SDS011;19143;59.322;14.502;2024-03-02T13:32:47;57.07;;;20.07;;
32790;SDS011;19143;59.322;14.502;2024-03-02T13:35:16;50.80;;;21.30;;
32790;SDS011;19143;59.322;14.502;2024-03-02T13:38:05;48.27;;;18.93;;
32790;SDS011;19143;59.322;14.502;2024-03-02T13:40:32;49.50;;;20.73;;
32790;SDS011;19143;59.322;14.502;2024-03-02T13:43:00;59.07;;;21.37;;
32790;SDS011;19143;59.322;14.502;2024-03-02T13:45:28;45.93;;;19.83;;
32790;SDS011;19143;59.322;14.502;2024-03-02T13:48:00;51.07;;;22.60;;
32790;SDS011;19143;59.322;14.502;2024-03-02T13:50:29;47.60;;;20.13;;
32790;SDS011;19143;59.322;14.502;2024-03-02T13:52:56;47.37;;;19.73;;
32790;SDS011;19143;59.322;14.502;2024-03-02T13:55:23;50.40;;;21.00;;
32790;SDS011;19143;59.322;14.502;2024-03-02T13:57:59;49.97;;;20.27;;
32790;SDS011;19143;59.322;14.502;2024-03-02T14:00:26;53.23;;;21.07;;
32790;SDS011;19143;59.322;14.502;2024-03-02T14:02:54;53.33;;;22.03;;
32790;SDS011;19143;59.322;14.502;2024-03-02T14:05:20;50.23;;;21.23;;
32790;SDS011;19143;59.322;14.502;2024-03-02T14:07:49;51.80;;;22.07;;
32790;SDS011;19143;59.322;14.502;2024-03-02T14:10:16;51.03;;;19.90;;
32790;SDS011;19143;59.322;14.502;2024-03-02T14:12:47;47.17;;;21.10;;
32790;SDS011;19143;59.322;14.502;2024-03-02T14:15:28;53.47;;;21.80;;
32790;SDS011;19143;59.322;14.502;2024-03-02T14:18:00;44.27;;;19.23;;
32790;SDS011;19143;59.322;14.502;2024-03-02T14:20:27;50.73;;;20.57;;
32790;SDS011;19143;59.322;14.502;2024-03-02T14:23:01;49.33;;;19.70;;
32790;SDS011;19143;59.322;14.502;2024-03-02T14:25:29;48.83;;;21.63;;
32790;SDS011;19143;59.322;14.502;2024-03-02T14:27:59;48.60;;;20.47;;
32790;SDS011;19143;59.322;14.502;2024-03-02T14:30:26;45.47;;;20.63;;
32790;SDS011;19143;59.322;14.502;2024-03-02T14:32:53;45.43;;;21.13;;
32790;SDS011;19143;59.322;14.502;2024-03-02T14:35:20;49.67;;;20.87;;
32790;SDS011;19143;59.322;14.502;2024-03-02T14:37:47;51.70;;;21.73;;
32790;SDS011;19143;59.322;14.502;2024-03-02T14:40:16;53.43;;;20.50;;
32790;SDS011;19143;59.322;14.502;2024-03-02T14:42:42;50.13;;;20.47;;
32790;SDS011;19143;59.322;14.502;2024-03-02T14:45:12;51.13;;;21.20;;
32790;SDS011;19143;59.322;14.502;2024-03-02T14:47:39;50.90;;;19.57;;
32790;SDS011;19143;59.322;14.502;2024-03-02T14:50:06;50.73;;;21.03;;
32790;SDS011;19143;59.322;14.502;2024-03-02T14:52:34;50.23;;;20.10;;
32790;SDS011;19143;59.322;14.502;2024-03-02T14:55:01;58.00;;;21.03;;
32790;SDS011;19143;59.322;14.502;2024-03-02T14:57:30;58.67;;;21.00;;
32790;SDS011;19143;59.322;14.502;2024-03-02T14:59:57;55.53;;;21.87;;
32790;SDS011;19143;59.322;14.502;2024-03-02T15:02:23;49.27;;;20.87;;
32790;SDS011;19143;59.322;14.502;2024-03-02T15:04:52;65.17;;;21.73;;
32790;SDS011;19143;59.322;14.502;2024-03-02T15:07:18;52.33;;;20.57;;
32790;SDS011;19143;59.322;14.502;2024-03-02T15:09:45;63.63;;;21.43;;
32790;SDS011;19143;59.322;14.502;2024-03-02T15:12:12;51.77;;;20.33;;
32790;SDS011;19143;59.322;14.502;2024-03-02T15:14:41;49.07;;;20.27;;
32790;SDS011;19143;59.322;14.502;2024-03-02T15:17:11;53.30;;;21.83;;
32790;SDS011;19143;59.322;14.502;2024-03-02T15:19:40;57.07;;;20.00;;
32790;SDS011;19143;59.322;14.502;2024-03-02T15:22:07;60.33;;;20.63;;
32790;SDS011;19143;59.322;14.502;2024-03-02T15:24:34;58.47;;;22.30;;
32790;SDS011;19143;59.322;14.502;2024-03-02T15:27:01;60.80;;;21.30;;
32790;SDS011;19143;59.322;14.502;2024-03-02T15:29:30;50.70;;;20.60;;
32790;SDS011;19143;59.322;14.502;2024-03-02T15:31:58;58.70;;;21.80;;
32790;SDS011;19143;59.322;14.502;2024-03-02T15:34:25;63.13;;;21.53;;
32790;SDS011;19143;59.322;14.502;2024-03-02T15:36:52;53.63;;;21.47;;
32790;SDS011;19143;59.322;14.502;2024-03-02T15:39:19;49.70;;;20.10;;
32790;SDS011;19143;59.322;14.502;2024-03-02T15:41:46;49.73;;;20.57;;
32790;SDS011;19143;59.322;14.502;2024-03-02T15:44:13;48.40;;;18.87;;
32790;SDS011;19143;59.322;14.502;2024-03-02T15:46:40;53.03;;;20.70;;
32790;SDS011;19143;59.322;14.502;2024-03-02T15:49:09;58.53;;;19.90;;
32790;SDS011;19143;59.322;14.502;2024-03-02T15:51:36;48.50;;;17.47;;
32790;SDS011;19143;59.322;14.502;2024-03-02T15:54:06;71.57;;;22.13;;
32790;SDS011;19143;59.322;14.502;2024-03-02T15:56:33;57.40;;;19.83;;
32790;SDS011;19143;59.322;14.502;2024-03-02T15:59:00;43.43;;;18.03;;
32790;SDS011;19143;59.322;14.502;2024-03-02T16:01:28;56.67;;;21.17;;
32790;SDS011;19143;59.322;14.502;2024-03-02T16:03:55;61.07;;;20.77;;
32790;SDS011;19143;59.322;14.502;2024-03-02T16:06:23;50.93;;;20.47;;
32790;SDS011;19143;59.322;14.502;2024-03-02T16:08:50;68.40;;;21.70;;
32790;SDS011;19143;59.322;14.502;2024-03-02T16:11:18;50.00;;;18.30;;
32790;SDS011;19143;59.322;14.502;2024-03-02T16:13:45;46.40;;;19.50;;
32790;SDS011;19143;59.322;14.502;2024-03-02T16:16:12;65.77;;;20.77;;
32790;SDS011;19143;59.322;14.502;2024-03-02T16:18:39;61.60;;;21.40;;
32790;SDS011;19143;59.322;14.502;2024-03-02T16:21:08;57.10;;;21.10;;
32790;SDS011;19143;59.322;14.502;2024-03-02T16:23:36;52.80;;;20.80;;
32790;SDS011;19143;59.322;14.502;2024-03-02T16:26:03;62.23;;;21.30;;
32790;SDS011;19143;59.322;14.502;2024-03-02T16:28:30;63.60;;;21.33;;
32790;SDS011;19143;59.322;14.502;2024-03-02T16:30:57;52.27;;;19.67;;
32790;SDS011;19143;59.322;14.502;2024-03-02T16:33:23;51.53;;;20.27;;
32790;SDS011;19143;59.322;14.502;2024-03-02T16:35:50;47.40;;;17.40;;
32790;SDS011;19143;59.322;14.502;2024-03-02T16:38:17;50.13;;;19.83;;
32790;SDS011;19143;59.322;14.502;2024-03-02T16:40:49;55.00;;;20.00;;
32790;SDS011;19143;59.322;14.502;2024-03-02T16:43:17;54.47;;;20.97;;
32790;SDS011;19143;59.322;14.502;2024-03-02T16:45:44;61.53;;;22.73;;
32790;SDS011;19143;59.322;14.502;2024-03-02T16:53:56;60.43;;;22.90;;
32790;SDS011;19143;59.322;14.502;2024-03-02T17:13:57;69.63;;;23.30;;
32790;SDS011;19143;59.322;14.502;2024-03-02T17:25:15;62.87;;;20.70;;
32790;SDS011;19143;59.322;14.502;2024-03-02T17:27:42;75.93;;;22.50;;
32790;SDS011;19143;59.322;14.502;2024-03-02T17:30:28;65.40;;;21.70;;
32790;SDS011;19143;59.322;14.502;2024-03-02T17:32:54;64.27;;;21.67;;
32790;SDS011;19143;59.322;14.502;2024-03-02T17:35:21;71.47;;;21.70;;
32790;SDS011;19143;59.322;14.502;2024-03-02T17:37:51;64.80;;;21.63;;
32790;SDS011;19143;59.322;14.502;2024-03-02T17:40:18;64.03;;;20.70;;
32790;SDS011;19143;59.322;14.502;2024-03-02T17:42:45;54.13;;;18.93;;
32790;SDS011;19143;59.322;14.502;2024-03-02T17:45:12;64.70;;;21.10;;
32790;SDS011;19143;59.322;14.502;2024-03-02T17:47:52;63.40;;;21.57;;
32790;SDS011;19143;59.322;14.502;2024-03-02T17:50:19;60.70;;;20.53;;
32790;SDS011;19143;59.322;14.502;2024-03-02T17:52:47;66.27;;;20.70;;
32790;SDS011;19143;59.322;14.502;2024-03-02T17:55:17;68.90;;;21.53;;
32790;SDS011;19143;59.322;14.502;2024-03-02T17:57:44;48.47;;;16.63;;
32790;SDS011;19143;59.322;14.502;2024-03-02T18:00:12;66.87;;;22.43;;
32790;SDS011;19143;59.322;14.502;2024-03-02T18:02:39;63.33;;;20.17;;
32790;SDS011;19143;59.322;14.502;2024-03-02T18:05:08;65.57;;;22.43;;
32790;SDS011;19143;59.322;14.502;2024-03-02T18:07:35;76.63;;;22.60;;
32790;SDS011;19143;59.322;14.502;2024-03-02T18:10:02;70.73;;;22.33;;
32790;SDS011;19143;59.322;14.502;2024-03-02T18:12:29;66.77;;;21.90;;
32790;SDS011;19143;59.322;14.502;2024-03-02T18:14:56;63.10;;;22.37;;
32790;SDS011;19143;59.322;14.502;2024-03-02T18:17:23;74.67;;;23.47;;
32790;SDS011;19143;59.322;14.502;2024-03-02T18:19:50;57.30;;;21.17;;
32790;SDS011;19143;59.322;14.502;2024-03-02T18:22:19;66.17;;;22.03;;
32790;SDS011;19143;59.322;14.502;2024-03-02T18:24:46;73.30;;;23.73;;
32790;SDS011;19143;59.322;14.502;2024-03-02T18:27:12;68.80;;;21.80;;
32790;SDS011;19143;59.322;14.502;2024-03-02T18:29:39;63.40;;;22.73;;
32790;SDS011;19143;59.322;14.502;2024-03-02T18:32:06;62.80;;;22.63;;